Amherst, Ohio
Current Conditions -  °F | °C
As of 12:53 AM on Sunday 23 Nov 2014 (Local Time) from KLPR Reporting Station
Overcast Overcast  
Wind Chill: 50°   Ceiling: 4000
Heat Index: 50°   Visibility: 10mi
Dew Point: 37°   Wind: 16mph
Humidity: 61%   Direction: 230°SW
Pressure: 30.03"   Gusts: NA
Location:  41.41°N, 82.24°W
Report Text: KLPR 230553Z AUTO 23014KT 10SM OVC040 10/03 A3003 RMK AO2 SLP172 T01000028 10100 20083 52003 TSNO
Loading
Personal Weather Stations






























Interactive Weather Map New forecast layout! Learn more

10-Day Weather Forecast

Advertisements
Track Severe Weather on mobile